ROYN/OGN METAR and TAF weather

Enter ICAO airport designator
Station Type Date Time Source
ROYN METAR 2020/09/25 18:00 UTC NOAA

ROYN 251800Z AUTO 02016KT 9999 FEW033 OVC070 27/21 Q1009


Station Type Date Time Source
ROYN Decoded METAR 2020/09/25 18:00 UTC NOAA

Yonaguni Airport, Japan (ROYN) 24-28N 122-59E 19M
Sep 25, 2020 - 02:00 PM EDT / 2020.09.25 1800 UTC
Wind: from the NNE (020 degrees) at 18 MPH (16 KT):0
Visibility: greater than 7 mile(s):0
Sky conditions: overcast
Temperature: 80 F (27 C)
Dew Point: 69 F (21 C)
Relative Humidity: 69%
Pressure (altimeter): 29.80 in. Hg (1009 hPa)
ob: ROYN 251800Z AUTO 02016KT 9999 FEW033 OVC070 27/21 Q1009
cycle: 18

Station Type Date Time Source
ROYN TAF UTC NOAA

Error!

Example: see airport list